sensor_id;sensor_type;location;lat;lon;timestamp;temperature;humidity
22337;DHT22;14992;50.844;4.418;2024-02-23T00:01:31;6.80;99.90
22337;DHT22;14992;50.844;4.418;2024-02-23T00:04:00;6.90;99.90
22337;DHT22;14992;50.844;4.418;2024-02-23T00:06:30;6.80;99.90
22337;DHT22;14992;50.844;4.418;2024-02-23T00:08:59;6.80;99.90
22337;DHT22;14992;50.844;4.418;2024-02-23T00:11:28;6.80;99.90
22337;DHT22;14992;50.844;4.418;2024-02-23T00:13:57;6.80;99.90
22337;DHT22;14992;50.844;4.418;2024-02-23T00:16:26;6.80;99.90
22337;DHT22;14992;50.844;4.418;2024-02-23T00:18:58;6.80;99.90
22337;DHT22;14992;50.844;4.418;2024-02-23T00:21:27;6.80;99.90
22337;DHT22;14992;50.844;4.418;2024-02-23T00:23:56;6.70;99.90
22337;DHT22;14992;50.844;4.418;2024-02-23T00:26:25;6.70;99.90
22337;DHT22;14992;50.844;4.418;2024-02-23T00:28:55;6.60;99.90
22337;DHT22;14992;50.844;4.418;2024-02-23T00:31:25;6.50;99.90
22337;DHT22;14992;50.844;4.418;2024-02-23T00:33:54;6.40;99.90
22337;DHT22;14992;50.844;4.418;2024-02-23T00:36:24;6.30;99.90
22337;DHT22;14992;50.844;4.418;2024-02-23T00:38:52;6.30;99.90
22337;DHT22;14992;50.844;4.418;2024-02-23T00:41:21;6.40;99.90
22337;DHT22;14992;50.844;4.418;2024-02-23T00:43:50;6.50;99.90
22337;DHT22;14992;50.844;4.418;2024-02-23T00:46:19;6.60;99.90
22337;DHT22;14992;50.844;4.418;2024-02-23T00:48:48;6.50;99.90
22337;DHT22;14992;50.844;4.418;2024-02-23T00:51:17;6.50;99.90
22337;DHT22;14992;50.844;4.418;2024-02-23T00:53:47;6.50;99.90
22337;DHT22;14992;50.844;4.418;2024-02-23T00:56:16;6.50;99.90
22337;DHT22;14992;50.844;4.418;2024-02-23T00:58:44;6.50;99.90
22337;DHT22;14992;50.844;4.418;2024-02-23T01:01:13;6.40;99.90
22337;DHT22;14992;50.844;4.418;2024-02-23T01:03:42;6.40;99.90
22337;DHT22;14992;50.844;4.418;2024-02-23T01:06:11;6.30;99.90
22337;DHT22;14992;50.844;4.418;2024-02-23T01:08:40;6.40;99.90
22337;DHT22;14992;50.844;4.418;2024-02-23T01:11:10;6.30;99.90
22337;DHT22;14992;50.844;4.418;2024-02-23T01:13:39;6.30;99.90
22337;DHT22;14992;50.844;4.418;2024-02-23T01:16:08;6.30;99.90
22337;DHT22;14992;50.844;4.418;2024-02-23T01:18:37;6.30;99.90
22337;DHT22;14992;50.844;4.418;2024-02-23T01:21:05;6.30;99.90
22337;DHT22;14992;50.844;4.418;2024-02-23T01:23:34;6.30;99.90
22337;DHT22;14992;50.844;4.418;2024-02-23T01:26:03;6.20;99.90
22337;DHT22;14992;50.844;4.418;2024-02-23T01:28:34;6.10;99.90
22337;DHT22;14992;50.844;4.418;2024-02-23T01:31:03;6.10;99.90
22337;DHT22;14992;50.844;4.418;2024-02-23T01:33:35;6.10;99.90
22337;DHT22;14992;50.844;4.418;2024-02-23T01:36:04;6.10;99.90
22337;DHT22;14992;50.844;4.418;2024-02-23T01:38:33;6.20;99.90
22337;DHT22;14992;50.844;4.418;2024-02-23T01:41:03;6.30;99.90
22337;DHT22;14992;50.844;4.418;2024-02-23T01:43:34;6.20;99.90
22337;DHT22;14992;50.844;4.418;2024-02-23T01:46:05;6.20;99.90
22337;DHT22;14992;50.844;4.418;2024-02-23T01:48:34;6.30;99.90
22337;DHT22;14992;50.844;4.418;2024-02-23T01:51:04;6.20;99.90
22337;DHT22;14992;50.844;4.418;2024-02-23T01:53:33;6.30;99.90
22337;DHT22;14992;50.844;4.418;2024-02-23T01:56:02;6.40;99.90
22337;DHT22;14992;50.844;4.418;2024-02-23T01:58:34;6.50;99.90
22337;DHT22;14992;50.844;4.418;2024-02-23T02:01:04;6.50;99.90
22337;DHT22;14992;50.844;4.418;2024-02-23T02:03:33;6.60;99.90
22337;DHT22;14992;50.844;4.418;2024-02-23T02:06:03;6.70;99.90
22337;DHT22;14992;50.844;4.418;2024-02-23T02:08:33;6.70;99.90
22337;DHT22;14992;50.844;4.418;2024-02-23T02:11:02;6.60;99.90
22337;DHT22;14992;50.844;4.418;2024-02-23T02:13:31;6.70;99.90
22337;DHT22;14992;50.844;4.418;2024-02-23T02:16:02;6.70;99.90
22337;DHT22;14992;50.844;4.418;2024-02-23T02:18:31;6.70;99.90
22337;DHT22;14992;50.844;4.418;2024-02-23T02:21:00;6.70;99.90
22337;DHT22;14992;50.844;4.418;2024-02-23T02:23:28;6.70;99.90
22337;DHT22;14992;50.844;4.418;2024-02-23T02:25:58;6.80;99.90
22337;DHT22;14992;50.844;4.418;2024-02-23T02:28:27;6.80;99.90
22337;DHT22;14992;50.844;4.418;2024-02-23T02:30:56;6.80;99.90
22337;DHT22;14992;50.844;4.418;2024-02-23T02:33:26;6.80;99.90
22337;DHT22;14992;50.844;4.418;2024-02-23T02:35:55;6.70;99.90
22337;DHT22;14992;50.844;4.418;2024-02-23T02:38:24;6.70;99.90
22337;DHT22;14992;50.844;4.418;2024-02-23T02:40:53;6.80;99.90
22337;DHT22;14992;50.844;4.418;2024-02-23T02:43:22;6.80;99.90
22337;DHT22;14992;50.844;4.418;2024-02-23T02:45:51;6.80;99.90
22337;DHT22;14992;50.844;4.418;2024-02-23T02:48:20;6.80;99.90
22337;DHT22;14992;50.844;4.418;2024-02-23T02:50:50;6.80;99.90
22337;DHT22;14992;50.844;4.418;2024-02-23T02:53:21;6.70;99.90
22337;DHT22;14992;50.844;4.418;2024-02-23T02:55:50;6.70;99.90
22337;DHT22;14992;50.844;4.418;2024-02-23T02:58:19;6.70;99.90
22337;DHT22;14992;50.844;4.418;2024-02-23T03:00:47;6.60;99.90
22337;DHT22;14992;50.844;4.418;2024-02-23T03:03:16;6.70;99.90
22337;DHT22;14992;50.844;4.418;2024-02-23T03:05:45;6.80;99.90
22337;DHT22;14992;50.844;4.418;2024-02-23T03:08:15;6.80;99.90
22337;DHT22;14992;50.844;4.418;2024-02-23T03:10:44;6.80;99.90
22337;DHT22;14992;50.844;4.418;2024-02-23T03:13:13;6.80;99.90
22337;DHT22;14992;50.844;4.418;2024-02-23T03:15:42;6.80;99.90
22337;DHT22;14992;50.844;4.418;2024-02-23T03:18:11;6.80;99.90
22337;DHT22;14992;50.844;4.418;2024-02-23T03:20:42;6.80;99.90
22337;DHT22;14992;50.844;4.418;2024-02-23T03:23:11;6.80;99.90
22337;DHT22;14992;50.844;4.418;2024-02-23T03:25:42;6.70;99.90
22337;DHT22;14992;50.844;4.418;2024-02-23T03:28:10;6.70;99.90
22337;DHT22;14992;50.844;4.418;2024-02-23T03:30:39;6.70;99.90
22337;DHT22;14992;50.844;4.418;2024-02-23T03:33:08;6.70;99.90
22337;DHT22;14992;50.844;4.418;2024-02-23T03:35:37;6.60;99.90
22337;DHT22;14992;50.844;4.418;2024-02-23T03:38:06;6.70;99.90
22337;DHT22;14992;50.844;4.418;2024-02-23T03:40:36;6.70;99.90
22337;DHT22;14992;50.844;4.418;2024-02-23T03:43:06;6.80;99.90
22337;DHT22;14992;50.844;4.418;2024-02-23T03:45:35;6.80;99.90
22337;DHT22;14992;50.844;4.418;2024-02-23T03:48:04;6.80;99.90
22337;DHT22;14992;50.844;4.418;2024-02-23T03:50:34;6.80;99.90
22337;DHT22;14992;50.844;4.418;2024-02-23T03:53:03;6.90;99.90
22337;DHT22;14992;50.844;4.418;2024-02-23T03:55:32;6.90;99.90
22337;DHT22;14992;50.844;4.418;2024-02-23T03:58:01;7.00;99.90
22337;DHT22;14992;50.844;4.418;2024-02-23T04:00:31;7.00;99.90
22337;DHT22;14992;50.844;4.418;2024-02-23T04:03:00;7.00;99.90
22337;DHT22;14992;50.844;4.418;2024-02-23T04:05:29;7.00;99.90
22337;DHT22;14992;50.844;4.418;2024-02-23T04:07:59;7.00;99.90
22337;DHT22;14992;50.844;4.418;2024-02-23T04:10:27;7.00;99.90
22337;DHT22;14992;50.844;4.418;2024-02-23T04:12:57;6.90;99.90
22337;DHT22;14992;50.844;4.418;2024-02-23T04:15:26;6.90;99.90
22337;DHT22;14992;50.844;4.418;2024-02-23T04:17:56;6.90;99.90
22337;DHT22;14992;50.844;4.418;2024-02-23T04:20:25;7.10;99.90
22337;DHT22;14992;50.844;4.418;2024-02-23T04:22:54;7.10;99.90
22337;DHT22;14992;50.844;4.418;2024-02-23T04:25:23;7.00;99.90
22337;DHT22;14992;50.844;4.418;2024-02-23T04:27:52;6.90;99.90
22337;DHT22;14992;50.844;4.418;2024-02-23T04:30:21;6.90;99.90
22337;DHT22;14992;50.844;4.418;2024-02-23T04:32:50;6.90;99.90
22337;DHT22;14992;50.844;4.418;2024-02-23T04:35:20;6.90;99.90
22337;DHT22;14992;50.844;4.418;2024-02-23T04:37:49;6.90;99.90
22337;DHT22;14992;50.844;4.418;2024-02-23T04:40:18;6.80;99.90
22337;DHT22;14992;50.844;4.418;2024-02-23T04:42:47;6.70;99.90
22337;DHT22;14992;50.844;4.418;2024-02-23T04:45:16;6.80;99.90
22337;DHT22;14992;50.844;4.418;2024-02-23T04:47:45;6.80;99.90
22337;DHT22;14992;50.844;4.418;2024-02-23T04:50:16;6.90;99.90
22337;DHT22;14992;50.844;4.418;2024-02-23T04:52:46;7.10;99.90
22337;DHT22;14992;50.844;4.418;2024-02-23T04:55:15;7.20;99.90
22337;DHT22;14992;50.844;4.418;2024-02-23T04:57:44;7.10;99.90
22337;DHT22;14992;50.844;4.418;2024-02-23T05:00:13;7.10;99.90
22337;DHT22;14992;50.844;4.418;2024-02-23T05:02:42;7.10;99.90
22337;DHT22;14992;50.844;4.418;2024-02-23T05:05:11;7.10;99.90
22337;DHT22;14992;50.844;4.418;2024-02-23T05:07:40;7.10;99.90
22337;DHT22;14992;50.844;4.418;2024-02-23T05:10:10;7.10;99.90
22337;DHT22;14992;50.844;4.418;2024-02-23T05:12:39;7.00;99.90
22337;DHT22;14992;50.844;4.418;2024-02-23T05:15:09;7.00;99.90
22337;DHT22;14992;50.844;4.418;2024-02-23T05:17:37;7.20;99.90
22337;DHT22;14992;50.844;4.418;2024-02-23T05:20:08;7.10;99.90
22337;DHT22;14992;50.844;4.418;2024-02-23T05:22:38;7.10;99.90
22337;DHT22;14992;50.844;4.418;2024-02-23T05:25:07;7.00;99.90
22337;DHT22;14992;50.844;4.418;2024-02-23T05:27:38;7.00;99.90
22337;DHT22;14992;50.844;4.418;2024-02-23T05:30:07;7.00;99.90
22337;DHT22;14992;50.844;4.418;2024-02-23T05:32:37;7.10;99.90
22337;DHT22;14992;50.844;4.418;2024-02-23T05:35:06;7.20;99.90
22337;DHT22;14992;50.844;4.418;2024-02-23T05:37:36;7.20;99.90
22337;DHT22;14992;50.844;4.418;2024-02-23T05:40:06;7.20;99.90
22337;DHT22;14992;50.844;4.418;2024-02-23T05:42:39;7.20;99.90
22337;DHT22;14992;50.844;4.418;2024-02-23T05:45:09;7.20;99.90
22337;DHT22;14992;50.844;4.418;2024-02-23T05:47:38;7.20;99.90
22337;DHT22;14992;50.844;4.418;2024-02-23T05:50:12;7.10;99.90
22337;DHT22;14992;50.844;4.418;2024-02-23T05:52:41;7.10;99.90
22337;DHT22;14992;50.844;4.418;2024-02-23T05:55:10;7.10;99.90
22337;DHT22;14992;50.844;4.418;2024-02-23T05:57:40;7.10;99.90
22337;DHT22;14992;50.844;4.418;2024-02-23T06:00:10;7.10;99.90
22337;DHT22;14992;50.844;4.418;2024-02-23T06:02:43;7.20;99.90
22337;DHT22;14992;50.844;4.418;2024-02-23T06:05:12;7.20;99.90
22337;DHT22;14992;50.844;4.418;2024-02-23T06:07:41;7.20;99.90
22337;DHT22;14992;50.844;4.418;2024-02-23T06:10:10;7.20;99.90
22337;DHT22;14992;50.844;4.418;2024-02-23T06:12:40;7.20;99.90
22337;DHT22;14992;50.844;4.418;2024-02-23T06:15:09;7.10;99.90
22337;DHT22;14992;50.844;4.418;2024-02-23T06:17:38;7.10;99.90
22337;DHT22;14992;50.844;4.418;2024-02-23T06:20:09;7.10;99.90
22337;DHT22;14992;50.844;4.418;2024-02-23T06:22:38;7.10;99.90
22337;DHT22;14992;50.844;4.418;2024-02-23T06:25:07;7.00;99.90
22337;DHT22;14992;50.844;4.418;2024-02-23T06:27:36;7.00;99.90
22337;DHT22;14992;50.844;4.418;2024-02-23T06:30:08;7.00;99.90
22337;DHT22;14992;50.844;4.418;2024-02-23T06:32:38;7.10;99.90
22337;DHT22;14992;50.844;4.418;2024-02-23T06:35:08;7.10;99.90
22337;DHT22;14992;50.844;4.418;2024-02-23T06:37:39;7.20;99.90
22337;DHT22;14992;50.844;4.418;2024-02-23T06:40:09;7.20;99.90
22337;DHT22;14992;50.844;4.418;2024-02-23T06:42:38;7.30;99.90
22337;DHT22;14992;50.844;4.418;2024-02-23T06:45:09;7.30;99.90
22337;DHT22;14992;50.844;4.418;2024-02-23T06:47:38;7.20;99.90
22337;DHT22;14992;50.844;4.418;2024-02-23T06:50:10;7.30;99.90
22337;DHT22;14992;50.844;4.418;2024-02-23T06:52:38;7.30;99.90
22337;DHT22;14992;50.844;4.418;2024-02-23T06:55:08;7.20;99.90
22337;DHT22;14992;50.844;4.418;2024-02-23T06:57:37;7.40;99.90
22337;DHT22;14992;50.844;4.418;2024-02-23T07:00:09;7.40;99.90
22337;DHT22;14992;50.844;4.418;2024-02-23T07:02:38;7.40;99.90
22337;DHT22;14992;50.844;4.418;2024-02-23T07:05:08;7.40;99.90
22337;DHT22;14992;50.844;4.418;2024-02-23T07:07:37;7.30;99.90
22337;DHT22;14992;50.844;4.418;2024-02-23T07:10:10;7.30;99.90
22337;DHT22;14992;50.844;4.418;2024-02-23T07:12:39;7.30;99.90
22337;DHT22;14992;50.844;4.418;2024-02-23T07:15:10;7.30;99.90
22337;DHT22;14992;50.844;4.418;2024-02-23T07:17:39;7.30;99.90
22337;DHT22;14992;50.844;4.418;2024-02-23T07:20:09;7.40;99.90
22337;DHT22;14992;50.844;4.418;2024-02-23T07:22:38;7.50;99.90
22337;DHT22;14992;50.844;4.418;2024-02-23T07:25:07;7.50;99.90
22337;DHT22;14992;50.844;4.418;2024-02-23T07:27:36;7.50;99.90
22337;DHT22;14992;50.844;4.418;2024-02-23T07:30:06;7.50;99.90
22337;DHT22;14992;50.844;4.418;2024-02-23T07:32:37;7.60;99.90
22337;DHT22;14992;50.844;4.418;2024-02-23T07:35:07;7.60;99.90
22337;DHT22;14992;50.844;4.418;2024-02-23T07:37:36;7.70;99.90
22337;DHT22;14992;50.844;4.418;2024-02-23T07:40:06;7.80;99.90
22337;DHT22;14992;50.844;4.418;2024-02-23T07:42:35;8.00;99.90
22337;DHT22;14992;50.844;4.418;2024-02-23T07:45:05;8.00;99.90
22337;DHT22;14992;50.844;4.418;2024-02-23T07:47:35;8.00;99.90
22337;DHT22;14992;50.844;4.418;2024-02-23T07:50:06;8.00;99.90
22337;DHT22;14992;50.844;4.418;2024-02-23T07:52:36;8.10;99.90
22337;DHT22;14992;50.844;4.418;2024-02-23T07:55:05;8.40;99.90
22337;DHT22;14992;50.844;4.418;2024-02-23T07:57:35;8.30;99.90
22337;DHT22;14992;50.844;4.418;2024-02-23T08:00:07;8.40;99.90
22337;DHT22;14992;50.844;4.418;2024-02-23T08:02:40;8.30;99.90
22337;DHT22;14992;50.844;4.418;2024-02-23T08:05:11;8.30;99.90
22337;DHT22;14992;50.844;4.418;2024-02-23T08:07:40;8.30;99.90
22337;DHT22;14992;50.844;4.418;2024-02-23T08:10:10;8.10;99.90
22337;DHT22;14992;50.844;4.418;2024-02-23T08:12:40;7.80;99.90
22337;DHT22;14992;50.844;4.418;2024-02-23T08:15:10;7.80;99.90
22337;DHT22;14992;50.844;4.418;2024-02-23T08:17:39;7.80;99.90
22337;DHT22;14992;50.844;4.418;2024-02-23T08:20:10;7.80;99.90
22337;DHT22;14992;50.844;4.418;2024-02-23T08:22:40;7.90;99.90
22337;DHT22;14992;50.844;4.418;2024-02-23T08:25:09;7.80;99.90
22337;DHT22;14992;50.844;4.418;2024-02-23T08:27:42;7.60;99.90
22337;DHT22;14992;50.844;4.418;2024-02-23T08:30:13;7.50;99.90
22337;DHT22;14992;50.844;4.418;2024-02-23T08:32:43;7.40;99.90
22337;DHT22;14992;50.844;4.418;2024-02-23T08:35:13;7.40;99.90
22337;DHT22;14992;50.844;4.418;2024-02-23T08:37:43;7.40;99.90
22337;DHT22;14992;50.844;4.418;2024-02-23T08:40:12;7.40;99.90
22337;DHT22;14992;50.844;4.418;2024-02-23T08:42:41;7.50;99.90
22337;DHT22;14992;50.844;4.418;2024-02-23T08:45:10;7.50;99.90
22337;DHT22;14992;50.844;4.418;2024-02-23T08:47:41;7.60;99.90
22337;DHT22;14992;50.844;4.418;2024-02-23T08:50:11;7.70;99.90
22337;DHT22;14992;50.844;4.418;2024-02-23T08:52:41;7.70;99.90
22337;DHT22;14992;50.844;4.418;2024-02-23T08:55:10;7.60;99.90
22337;DHT22;14992;50.844;4.418;2024-02-23T08:57:39;7.40;99.90
22337;DHT22;14992;50.844;4.418;2024-02-23T09:00:08;7.30;99.90
22337;DHT22;14992;50.844;4.418;2024-02-23T09:02:40;7.20;99.90
22337;DHT22;14992;50.844;4.418;2024-02-23T09:05:10;7.20;99.90
22337;DHT22;14992;50.844;4.418;2024-02-23T09:07:40;7.10;99.90
22337;DHT22;14992;50.844;4.418;2024-02-23T09:10:10;7.10;99.90
22337;DHT22;14992;50.844;4.418;2024-02-23T09:12:39;7.30;99.90
22337;DHT22;14992;50.844;4.418;2024-02-23T09:15:09;7.30;99.90
22337;DHT22;14992;50.844;4.418;2024-02-23T09:17:39;7.30;99.90
22337;DHT22;14992;50.844;4.418;2024-02-23T09:20:09;7.40;99.90
22337;DHT22;14992;50.844;4.418;2024-02-23T09:22:40;7.30;99.90
22337;DHT22;14992;50.844;4.418;2024-02-23T09:25:09;7.40;99.90
22337;DHT22;14992;50.844;4.418;2024-02-23T09:27:38;7.50;99.90
22337;DHT22;14992;50.844;4.418;2024-02-23T09:30:12;7.60;99.90
22337;DHT22;14992;50.844;4.418;2024-02-23T09:32:41;7.60;99.90
22337;DHT22;14992;50.844;4.418;2024-02-23T09:35:12;7.70;99.90
22337;DHT22;14992;50.844;4.418;2024-02-23T09:37:43;7.80;99.90
22337;DHT22;14992;50.844;4.418;2024-02-23T09:40:12;7.90;99.90
22337;DHT22;14992;50.844;4.418;2024-02-23T09:42:42;7.90;99.90
22337;DHT22;14992;50.844;4.418;2024-02-23T09:45:12;8.10;99.90
22337;DHT22;14992;50.844;4.418;2024-02-23T09:47:41;8.20;99.90
22337;DHT22;14992;50.844;4.418;2024-02-23T09:50:12;8.30;99.90
22337;DHT22;14992;50.844;4.418;2024-02-23T09:52:43;8.50;99.90
22337;DHT22;14992;50.844;4.418;2024-02-23T09:55:12;8.50;99.90
22337;DHT22;14992;50.844;4.418;2024-02-23T09:57:42;8.50;99.90
22337;DHT22;14992;50.844;4.418;2024-02-23T10:00:13;8.50;99.90
22337;DHT22;14992;50.844;4.418;2024-02-23T10:02:44;8.60;99.90
22337;DHT22;14992;50.844;4.418;2024-02-23T10:05:14;8.60;99.90
22337;DHT22;14992;50.844;4.418;2024-02-23T10:07:45;8.60;99.90
22337;DHT22;14992;50.844;4.418;2024-02-23T10:10:14;8.40;99.90
22337;DHT22;14992;50.844;4.418;2024-02-23T10:12:43;8.30;99.90
22337;DHT22;14992;50.844;4.418;2024-02-23T10:15:12;8.40;99.90
22337;DHT22;14992;50.844;4.418;2024-02-23T10:17:41;8.50;99.90
22337;DHT22;14992;50.844;4.418;2024-02-23T10:20:11;8.80;99.90
22337;DHT22;14992;50.844;4.418;2024-02-23T10:22:40;8.80;99.90
22337;DHT22;14992;50.844;4.418;2024-02-23T10:25:10;9.00;99.90
22337;DHT22;14992;50.844;4.418;2024-02-23T10:27:40;9.20;99.90
22337;DHT22;14992;50.844;4.418;2024-02-23T10:30:11;9.20;99.90
22337;DHT22;14992;50.844;4.418;2024-02-23T10:32:40;9.10;99.90
22337;DHT22;14992;50.844;4.418;2024-02-23T10:35:13;9.00;99.90
22337;DHT22;14992;50.844;4.418;2024-02-23T10:37:43;9.20;99.90
22337;DHT22;14992;50.844;4.418;2024-02-23T10:40:16;9.30;99.90
22337;DHT22;14992;50.844;4.418;2024-02-23T10:42:47;9.30;99.90
22337;DHT22;14992;50.844;4.418;2024-02-23T10:45:19;9.30;99.90
22337;DHT22;14992;50.844;4.418;2024-02-23T10:47:49;9.20;99.90
22337;DHT22;14992;50.844;4.418;2024-02-23T10:50:19;9.10;99.90
22337;DHT22;14992;50.844;4.418;2024-02-23T10:52:49;9.20;99.90
22337;DHT22;14992;50.844;4.418;2024-02-23T10:55:21;9.30;99.90
22337;DHT22;14992;50.844;4.418;2024-02-23T10:57:51;9.30;99.90
22337;DHT22;14992;50.844;4.418;2024-02-23T11:00:22;9.30;99.90
22337;DHT22;14992;50.844;4.418;2024-02-23T11:02:53;9.50;99.90
22337;DHT22;14992;50.844;4.418;2024-02-23T11:05:23;9.80;99.90
22337;DHT22;14992;50.844;4.418;2024-02-23T11:07:56;9.60;99.90
22337;DHT22;14992;50.844;4.418;2024-02-23T11:10:26;9.50;99.90
22337;DHT22;14992;50.844;4.418;2024-02-23T11:12:59;9.70;99.90
22337;DHT22;14992;50.844;4.418;2024-02-23T11:15:30;9.70;99.90
22337;DHT22;14992;50.844;4.418;2024-02-23T11:18:01;9.80;99.90
22337;DHT22;14992;50.844;4.418;2024-02-23T11:20:34;9.90;99.90
22337;DHT22;14992;50.844;4.418;2024-02-23T11:23:13;9.80;99.90
22337;DHT22;14992;50.844;4.418;2024-02-23T11:25:59;9.80;99.90
22337;DHT22;14992;50.844;4.418;2024-02-23T11:28:28;9.60;99.90
22337;DHT22;14992;50.844;4.418;2024-02-23T11:30:57;9.60;99.90
22337;DHT22;14992;50.844;4.418;2024-02-23T11:33:34;9.60;99.90
22337;DHT22;14992;50.844;4.418;2024-02-23T11:36:07;9.70;99.90
22337;DHT22;14992;50.844;4.418;2024-02-23T11:38:36;9.70;99.90
22337;DHT22;14992;50.844;4.418;2024-02-23T11:41:11;9.80;99.90
22337;DHT22;14992;50.844;4.418;2024-02-23T11:43:41;10.10;99.90
22337;DHT22;14992;50.844;4.418;2024-02-23T11:46:11;9.90;99.90
22337;DHT22;14992;50.844;4.418;2024-02-23T11:48:40;10.00;99.90
22337;DHT22;14992;50.844;4.418;2024-02-23T11:51:09;10.00;99.90
22337;DHT22;14992;50.844;4.418;2024-02-23T11:53:38;9.80;99.90
22337;DHT22;14992;50.844;4.418;2024-02-23T11:56:07;9.60;99.90
22337;DHT22;14992;50.844;4.418;2024-02-23T11:58:39;9.60;99.90
22337;DHT22;14992;50.844;4.418;2024-02-23T12:01:08;9.50;99.90
22337;DHT22;14992;50.844;4.418;2024-02-23T12:03:37;9.60;99.90
22337;DHT22;14992;50.844;4.418;2024-02-23T12:06:07;9.60;99.90
22337;DHT22;14992;50.844;4.418;2024-02-23T12:08:37;9.90;99.90
22337;DHT22;14992;50.844;4.418;2024-02-23T12:11:07;10.20;99.90
22337;DHT22;14992;50.844;4.418;2024-02-23T12:13:38;10.20;99.90
22337;DHT22;14992;50.844;4.418;2024-02-23T12:16:08;10.20;99.90
22337;DHT22;14992;50.844;4.418;2024-02-23T12:18:37;10.10;99.90
